createdAt,value
2018-09-11T00:00:01.301Z,1017.38
2018-09-11T00:01:01.269Z,1017.34
2018-09-11T00:02:01.244Z,1017.33
2018-09-11T00:03:01.219Z,1017.41
2018-09-11T00:04:01.196Z,1017.39
2018-09-11T00:05:01.169Z,1017.33
2018-09-11T00:06:01.148Z,1017.28
2018-09-11T00:07:01.118Z,1017.30
2018-09-11T00:08:01.094Z,1017.23
2018-09-11T00:09:01.070Z,1017.27
2018-09-11T00:10:01.048Z,1017.25
2018-09-11T00:11:01.034Z,1017.19
2018-09-11T00:12:00.994Z,1017.15
2018-09-11T00:13:00.974Z,1017.08
2018-09-11T00:14:00.952Z,1017.07
2018-09-11T00:15:00.919Z,1017.03
2018-09-11T00:16:00.894Z,1016.95
2018-09-11T00:17:00.868Z,1016.91
2018-09-11T00:18:00.845Z,1016.92
2018-09-11T00:19:00.819Z,1016.95
2018-09-11T00:20:00.793Z,1016.97
2018-09-11T00:21:00.769Z,1016.99
2018-09-11T00:22:00.744Z,1017.11
2018-09-11T00:23:00.722Z,1016.99
2018-09-11T00:24:00.694Z,1017.05
2018-09-11T00:25:00.669Z,1017.15
2018-09-11T00:26:00.665Z,1017.13
2018-09-11T00:27:00.663Z,1017.12
2018-09-11T00:28:00.593Z,1017.12
2018-09-11T00:29:00.569Z,1017.03
2018-09-11T00:30:00.547Z,1017.03
2018-09-11T00:31:00.526Z,1017.04
2018-09-11T00:32:00.493Z,1017.01
2018-09-11T00:33:00.470Z,1017.01
2018-09-11T00:34:00.447Z,1017.06
2018-09-11T00:35:00.417Z,1016.97
2018-09-11T00:36:00.399Z,1017.01
2018-09-11T00:37:00.370Z,1016.96
2018-09-11T00:38:00.349Z,1016.99
2018-09-11T00:39:00.321Z,1016.97
2018-09-11T00:40:00.294Z,1017.04
2018-09-11T00:41:00.269Z,1017.07
2018-09-11T00:42:00.243Z,1017.05
2018-09-11T00:43:00.217Z,1017.07
2018-09-11T00:44:00.193Z,1017.07
2018-09-11T00:45:00.167Z,1017.08
2018-09-11T00:46:00.146Z,1017.07
2018-09-11T00:47:00.121Z,1017.04
2018-09-11T00:48:00.094Z,1017.05
2018-09-11T00:49:00.069Z,1016.98
2018-09-11T00:50:00.044Z,1017.07
2018-09-11T00:51:00.017Z,1016.96
2018-09-11T00:52:00.131Z,1016.92
2018-09-11T00:52:59.968Z,1016.83
2018-09-11T00:53:59.944Z,1016.87
2018-09-11T00:54:59.918Z,1016.86
2018-09-11T00:55:59.893Z,1016.83
2018-09-11T00:56:59.876Z,1016.86
2018-09-11T00:57:59.855Z,1016.86
2018-09-11T00:58:59.818Z,1016.81
2018-09-11T00:59:59.794Z,1016.85
2018-09-11T01:00:59.769Z,1016.86
2018-09-11T01:01:59.745Z,1016.95
2018-09-11T01:02:59.719Z,1016.75
2018-09-11T01:03:59.693Z,1017.04
2018-09-11T01:04:59.669Z,1017.02
2018-09-11T01:05:59.644Z,1016.90
2018-09-11T01:06:59.622Z,1016.89
2018-09-11T01:07:59.594Z,1016.80
2018-09-11T01:08:59.572Z,1016.95
2018-09-11T01:09:59.565Z,1016.87
2018-09-11T01:10:59.523Z,1016.92
2018-09-11T01:11:59.496Z,1016.92
2018-09-11T01:12:59.476Z,1016.90
2018-09-11T01:13:59.443Z,1016.83
2018-09-11T01:14:59.418Z,1016.69
2018-09-11T01:15:59.401Z,1016.75
2018-09-11T01:16:59.369Z,1016.83
2018-09-11T01:17:59.344Z,1016.81
2018-09-11T01:18:59.318Z,1016.79
2018-09-11T01:19:59.293Z,1016.86
2018-09-11T01:20:59.269Z,1016.82
2018-09-11T01:21:59.244Z,1016.67
2018-09-11T01:22:59.222Z,1016.70
2018-09-11T01:23:59.193Z,1016.57
2018-09-11T01:24:59.170Z,1016.70
2018-09-11T01:25:59.144Z,1016.58
2018-09-11T01:26:59.119Z,1016.44
2018-09-11T01:27:59.095Z,1016.53
2018-09-11T01:28:59.069Z,1016.55
2018-09-11T01:29:59.043Z,1016.61
2018-09-11T01:30:59.020Z,1016.55
2018-09-11T01:31:58.993Z,1016.65
2018-09-11T01:32:58.974Z,1016.65
2018-09-11T01:33:58.945Z,1016.73
2018-09-11T01:34:58.917Z,1016.75
2018-09-11T01:35:58.893Z,1016.79
2018-09-11T01:36:58.867Z,1016.75
2018-09-11T01:37:58.843Z,1016.77
2018-09-11T01:38:58.817Z,1016.85
2018-09-11T01:39:58.794Z,1016.92
2018-09-11T01:40:58.768Z,1016.94
2018-09-11T01:41:58.747Z,1016.89
2018-09-11T01:42:58.719Z,1016.80
2018-09-11T01:43:58.692Z,1016.89
2018-09-11T01:44:58.668Z,1016.95
2018-09-11T01:45:58.643Z,1016.90
2018-09-11T01:46:58.618Z,1016.87
2018-09-11T01:47:58.592Z,1016.84
2018-09-11T01:48:58.568Z,1016.85
2018-09-11T01:49:58.546Z,1016.83
2018-09-11T01:50:58.517Z,1016.80
2018-09-11T01:51:58.496Z,1016.82
2018-09-11T01:52:58.468Z,1016.84
2018-09-11T01:53:58.443Z,1016.85
2018-09-11T01:54:58.417Z,1016.76
2018-09-11T01:55:58.399Z,1016.79
2018-09-11T01:56:58.368Z,1016.78
2018-09-11T01:57:58.346Z,1016.79
2018-09-11T01:58:58.317Z,1016.75
2018-09-11T01:59:58.293Z,1016.75
2018-09-11T02:00:58.268Z,1016.73
2018-09-11T02:01:58.248Z,1016.74
2018-09-11T02:02:58.219Z,1016.75
2018-09-11T02:03:58.194Z,1016.66
2018-09-11T02:04:58.176Z,1016.65
2018-09-11T02:05:58.145Z,1016.61
2018-09-11T02:06:58.119Z,1016.67
2018-09-11T02:07:58.100Z,1016.68
2018-09-11T02:08:58.069Z,1016.68
2018-09-11T02:09:58.051Z,1016.64
2018-09-11T02:10:58.021Z,1016.72
2018-09-11T02:11:57.994Z,1016.77
2018-09-11T02:12:57.978Z,1016.72
2018-09-11T02:13:57.945Z,1016.73
2018-09-11T02:14:57.925Z,1016.77
2018-09-11T02:15:57.898Z,1016.80
2018-09-11T02:16:57.870Z,1016.75
2018-09-11T02:17:57.846Z,1016.70
2018-09-11T02:18:57.821Z,1016.80
2018-09-11T02:19:57.794Z,1016.72
2018-09-11T02:20:57.772Z,1016.73
2018-09-11T02:21:57.754Z,1016.81
2018-09-11T02:22:57.722Z,1016.84
2018-09-11T02:23:57.696Z,1016.82
2018-09-11T02:24:57.673Z,1016.85
2018-09-11T02:25:57.648Z,1016.79
2018-09-11T02:26:57.622Z,1016.76
2018-09-11T02:27:57.596Z,1016.78
2018-09-11T02:28:57.573Z,1016.85
2018-09-11T02:29:57.546Z,1016.76
2018-09-11T02:30:57.521Z,1016.71
2018-09-11T02:31:57.500Z,1016.72
2018-09-11T02:32:57.475Z,1016.78
2018-09-11T02:33:57.447Z,1016.74
2018-09-11T02:34:57.422Z,1016.77
2018-09-11T02:35:57.396Z,1016.82
2018-09-11T02:36:57.375Z,1016.80
2018-09-11T02:37:57.351Z,1016.69
2018-09-11T02:38:57.323Z,1016.84
2018-09-11T02:39:57.299Z,1016.87
2018-09-11T02:40:57.273Z,1016.92
2018-09-11T02:41:57.249Z,1016.90
2018-09-11T02:42:57.224Z,1016.85
2018-09-11T02:43:57.197Z,1016.85
2018-09-11T02:44:57.173Z,1016.80
2018-09-11T02:45:57.148Z,1016.82
2018-09-11T02:46:57.123Z,1016.88
2018-09-11T02:47:57.101Z,1016.92
2018-09-11T02:48:57.072Z,1016.92
2018-09-11T02:49:57.048Z,1016.92
2018-09-11T02:50:57.026Z,1016.87
2018-09-11T02:51:57.003Z,1016.85
2018-09-11T02:52:56.972Z,1016.89
2018-09-11T02:53:56.947Z,1016.84
2018-09-11T02:54:56.950Z,1016.81
2018-09-11T02:55:56.896Z,1016.84
2018-09-11T02:56:56.872Z,1016.79
2018-09-11T02:57:56.846Z,1016.80
2018-09-11T02:58:56.820Z,1016.82
2018-09-11T02:59:56.794Z,1016.85
2018-09-11T03:00:56.770Z,1016.88
2018-09-11T03:01:56.748Z,1016.73
2018-09-11T03:02:56.720Z,1016.67
2018-09-11T03:03:56.694Z,1016.80
2018-09-11T03:04:56.672Z,1016.80
2018-09-11T03:05:56.645Z,1016.72
2018-09-11T03:06:56.619Z,1016.71
2018-09-11T03:07:56.598Z,1016.73
2018-09-11T03:08:56.574Z,1016.81
2018-09-11T03:09:56.542Z,1016.68
2018-09-11T03:10:56.514Z,1016.64
2018-09-11T03:11:56.494Z,1016.75
2018-09-11T03:12:56.467Z,1016.69
2018-09-11T03:13:56.449Z,1016.67
2018-09-11T03:14:56.414Z,1016.57
2018-09-11T03:15:56.389Z,1016.51
2018-09-11T03:16:56.364Z,1016.56
2018-09-11T03:17:56.342Z,1016.57
2018-09-11T03:18:56.381Z,1016.40
2018-09-11T03:19:56.287Z,1016.43
2018-09-11T03:20:56.262Z,1016.46
2018-09-11T03:21:56.440Z,1016.34
2018-09-11T03:22:56.210Z,1016.47
2018-09-11T03:23:56.234Z,1016.42
2018-09-11T03:24:56.160Z,1016.48
2018-09-11T03:25:56.134Z,1016.30
2018-09-11T03:26:56.111Z,1016.43
2018-09-11T03:27:56.082Z,1016.27
2018-09-11T03:28:56.056Z,1016.44
2018-09-11T03:29:56.031Z,1016.34
2018-09-11T03:30:56.008Z,1016.15
2018-09-11T03:31:55.980Z,1016.20
2018-09-11T03:32:55.958Z,1016.15
2018-09-11T03:33:55.931Z,1016.10
2018-09-11T03:34:56.105Z,1016.15
2018-09-11T03:35:55.878Z,1016.17
2018-09-11T03:36:55.851Z,1016.13
2018-09-11T03:37:55.827Z,1016.05
2018-09-11T03:38:55.801Z,1016.04
2018-09-11T03:39:58.603Z,1016.10
2018-09-11T03:40:55.952Z,1016.03
2018-09-11T03:41:55.725Z,1016.07
2018-09-11T03:42:55.701Z,1016.07
2018-09-11T03:43:55.673Z,1016.03
2018-09-11T03:44:55.648Z,1016.05
2018-09-11T03:45:55.622Z,1016.02
2018-09-11T03:46:55.601Z,1016.02
2018-09-11T03:47:55.578Z,1016.03
2018-09-11T03:48:55.546Z,1016.04
2018-09-11T03:49:55.545Z,1016.13
2018-09-11T03:50:55.504Z,1015.99
2018-09-11T03:51:55.503Z,1016.05
2018-09-11T03:52:55.444Z,1016.11
2018-09-11T03:53:55.420Z,1016.05
2018-09-11T03:54:55.393Z,1015.99
2018-09-11T03:55:55.368Z,1016.07
2018-09-11T03:56:55.343Z,1016.04
2018-09-11T03:57:55.318Z,1016.10
2018-09-11T03:58:55.292Z,1016.06
2018-09-11T03:59:55.266Z,1016.11
2018-09-11T04:00:55.245Z,1016.08
2018-09-11T04:01:55.222Z,1016.12
2018-09-11T04:02:55.190Z,1016.06
2018-09-11T04:03:55.166Z,1016.10
2018-09-11T04:04:55.139Z,1016.02
2018-09-11T04:05:55.115Z,1015.92
2018-09-11T04:06:55.105Z,1016.11
2018-09-11T04:07:55.064Z,1016.13
2018-09-11T04:08:55.042Z,1016.05
2018-09-11T04:09:55.014Z,1016.03
2018-09-11T04:10:54.987Z,1016.16
2018-09-11T04:11:54.969Z,1016.09
2018-09-11T04:12:54.942Z,1016.05
2018-09-11T04:13:54.915Z,1016.14
2018-09-11T04:14:54.887Z,1016.00
2018-09-11T04:15:54.864Z,1016.11
2018-09-11T04:16:54.836Z,1016.02
2018-09-11T04:17:54.812Z,1016.10
2018-09-11T04:18:54.790Z,1015.97
2018-09-11T04:19:54.760Z,1016.09
2018-09-11T04:20:54.736Z,1016.09
2018-09-11T04:21:54.712Z,1016.14
2018-09-11T04:22:54.684Z,1016.07
2018-09-11T04:23:54.658Z,1015.95
2018-09-11T04:24:54.634Z,1016.04
2018-09-11T04:25:54.611Z,1016.15
2018-09-11T04:26:54.598Z,1015.95
2018-09-11T04:27:54.558Z,1016.00
2018-09-11T04:28:54.537Z,1015.97
2018-09-11T04:29:54.509Z,1015.79
2018-09-11T04:30:54.481Z,1015.94
2018-09-11T04:31:54.457Z,1015.91
2018-09-11T04:32:54.433Z,1015.81
2018-09-11T04:33:54.406Z,1015.79
2018-09-11T04:34:54.381Z,1015.87
2018-09-11T04:35:54.355Z,1015.87
2018-09-11T04:36:54.329Z,1015.79
2018-09-11T04:37:54.308Z,1015.73
2018-09-11T04:38:54.279Z,1015.92
2018-09-11T04:39:54.255Z,1015.53
2018-09-11T04:40:54.230Z,1015.77
2018-09-11T04:41:54.204Z,1015.62
2018-09-11T04:42:54.193Z,1015.84
2018-09-11T04:43:54.152Z,1015.87
2018-09-11T04:44:54.127Z,1015.76
2018-09-11T04:45:54.101Z,1015.81
2018-09-11T04:46:54.125Z,1015.97
2018-09-11T04:47:54.051Z,1015.87
2018-09-11T04:48:54.025Z,1015.93
2018-09-11T04:49:53.999Z,1015.68
2018-09-11T04:50:53.974Z,1015.92
2018-09-11T04:51:53.951Z,1015.94
2018-09-11T04:52:53.922Z,1015.97
2018-09-11T04:53:53.896Z,1015.90
2018-09-11T04:54:53.877Z,1015.87
2018-09-11T04:55:53.898Z,1015.48
2018-09-11T04:56:53.820Z,1015.67
2018-09-11T04:57:53.799Z,1016.00
2018-09-11T04:58:53.768Z,1015.70
2018-09-11T04:59:53.742Z,1015.67
2018-09-11T05:00:53.717Z,1015.91
2018-09-11T05:01:53.692Z,1016.07
2018-09-11T05:02:53.665Z,1015.99
2018-09-11T05:03:53.640Z,1015.81
2018-09-11T05:04:53.614Z,1016.01
2018-09-11T05:05:53.590Z,1016.04
2018-09-11T05:06:53.562Z,1016.04
2018-09-11T05:07:53.537Z,1015.90
2018-09-11T05:08:53.511Z,1016.10
2018-09-11T05:09:53.486Z,1016.00
2018-09-11T05:10:53.459Z,1016.00
2018-09-11T05:11:53.434Z,1015.84
2018-09-11T05:12:53.408Z,1015.98
2018-09-11T05:13:53.383Z,1015.74
2018-09-11T05:14:53.356Z,1015.90
2018-09-11T05:15:53.331Z,1015.86
2018-09-11T05:16:53.306Z,1015.92
2018-09-11T05:17:53.281Z,1015.80
2018-09-11T05:18:53.253Z,1015.73
2018-09-11T05:19:53.228Z,1015.74
2018-09-11T05:20:53.200Z,1015.72
2018-09-11T05:21:53.176Z,1015.80
2018-09-11T05:22:53.154Z,1015.73
2018-09-11T05:23:53.125Z,1015.74
2018-09-11T05:24:53.104Z,1015.64
2018-09-11T05:25:53.072Z,1015.70
2018-09-11T05:26:53.047Z,1015.87
2018-09-11T05:27:53.029Z,1015.89
2018-09-11T05:28:52.996Z,1015.77
2018-09-11T05:29:52.971Z,1015.52
2018-09-11T05:30:52.944Z,1015.44
2018-09-11T05:31:52.924Z,1015.29
2018-09-11T05:32:52.893Z,1015.45
2018-09-11T05:33:52.867Z,1015.34
2018-09-11T05:34:52.841Z,1015.35
2018-09-11T05:35:52.816Z,1015.31
2018-09-11T05:36:52.791Z,1015.47
2018-09-11T05:37:52.775Z,1015.36
2018-09-11T05:38:52.763Z,1015.56
2018-09-11T05:39:52.712Z,1015.44
2018-09-11T05:40:52.687Z,1015.37
2018-09-11T05:41:52.661Z,1015.28
2018-09-11T05:42:52.636Z,1015.40
2018-09-11T05:43:52.616Z,1015.46
2018-09-11T05:44:52.585Z,1015.36
2018-09-11T05:45:52.559Z,1015.37
2018-09-11T05:46:52.533Z,1015.37
2018-09-11T05:47:52.508Z,1015.32
2018-09-11T05:48:52.486Z,1015.56
2018-09-11T05:49:52.460Z,1015.61
2018-09-11T05:50:52.436Z,1015.62
2018-09-11T05:51:52.414Z,1015.61
2018-09-11T05:52:52.384Z,1015.65
2018-09-11T05:53:52.355Z,1015.54
2018-09-11T05:54:52.363Z,1015.52
2018-09-11T05:55:52.305Z,1015.49
2018-09-11T05:56:52.280Z,1015.58
2018-09-11T05:57:52.258Z,1015.52
2018-09-11T05:58:52.230Z,1015.59
2018-09-11T05:59:52.202Z,1015.86
2018-09-11T06:00:52.178Z,1015.68
2018-09-11T06:01:52.164Z,1015.68
2018-09-11T06:02:52.127Z,1015.56
2018-09-11T06:03:52.116Z,1015.72
2018-09-11T06:04:52.079Z,1015.50
2018-09-11T06:05:52.054Z,1015.76
2018-09-11T06:06:52.028Z,1015.80
2018-09-11T06:07:52.054Z,1015.75
2018-09-11T06:08:51.978Z,1015.66
2018-09-11T06:09:51.953Z,1015.58
2018-09-11T06:10:51.934Z,1015.73
2018-09-11T06:11:51.903Z,1015.81
2018-09-11T06:12:51.878Z,1015.57
2018-09-11T06:13:51.853Z,1015.52
2018-09-11T06:14:51.828Z,1015.50
2018-09-11T06:15:51.802Z,1015.49
2018-09-11T06:16:51.779Z,1015.92
2018-09-11T06:17:51.754Z,1015.59
2018-09-11T06:18:51.729Z,1015.77
2018-09-11T06:19:51.703Z,1015.63
2018-09-11T06:20:51.679Z,1015.83
2018-09-11T06:21:51.654Z,1015.39
2018-09-11T06:22:51.628Z,1015.18
2018-09-11T06:23:51.604Z,1015.29
2018-09-11T06:24:51.585Z,1015.34
2018-09-11T06:25:51.743Z,1015.39
2018-09-11T06:26:51.528Z,1015.77
2018-09-11T06:27:51.504Z,1015.53
2018-09-11T06:28:51.479Z,1015.45
2018-09-11T06:29:51.462Z,1015.36
2018-09-11T06:30:51.431Z,1015.29
2018-09-11T06:31:51.403Z,1015.76
2018-09-11T06:32:51.379Z,1015.60
2018-09-11T06:33:51.353Z,1015.28
2018-09-11T06:34:51.332Z,1015.36
2018-09-11T06:35:51.304Z,1015.27
2018-09-11T06:36:51.295Z,1015.33
2018-09-11T06:37:51.255Z,1015.70
2018-09-11T06:38:51.229Z,1015.42
2018-09-11T06:39:51.205Z,1015.62
2018-09-11T06:40:51.180Z,1015.70
2018-09-11T06:41:51.157Z,1015.62
2018-09-11T06:42:51.129Z,1015.52
2018-09-11T06:43:51.105Z,1015.52
2018-09-11T06:44:51.099Z,1015.41
2018-09-11T06:45:51.056Z,1015.53
2018-09-11T06:46:51.048Z,1015.74
2018-09-11T06:47:53.830Z,1015.74
2018-09-11T06:48:50.981Z,1015.81
2018-09-11T06:49:50.956Z,1015.50
2018-09-11T06:50:50.932Z,1015.43
2018-09-11T06:51:50.906Z,1015.68
2018-09-11T06:52:50.882Z,1015.48
2018-09-11T06:53:50.857Z,1015.71
2018-09-11T06:54:50.948Z,1015.44
2018-09-11T06:55:50.807Z,1015.67
2018-09-11T06:56:50.783Z,1015.38
2018-09-11T06:57:50.758Z,1015.80
2018-09-11T06:58:50.740Z,1015.51
2018-09-11T06:59:50.709Z,1015.22
2018-09-11T07:00:50.685Z,1015.09
2018-09-11T07:01:50.995Z,1015.05
2018-09-11T07:02:50.641Z,1015.19
2018-09-11T07:03:50.611Z,1015.58
2018-09-11T07:04:50.621Z,1015.49
2018-09-11T07:05:50.765Z,1015.52
2018-09-11T07:06:50.545Z,1015.15
2018-09-11T07:07:50.512Z,1015.18
2018-09-11T07:08:50.489Z,1015.56
2018-09-11T07:09:50.464Z,1015.06
2018-09-11T07:10:50.659Z,1015.30
2018-09-11T07:11:50.415Z,1015.04
2018-09-11T07:12:50.392Z,1015.33
2018-09-11T07:13:50.373Z,1015.12
2018-09-11T07:14:50.456Z,1014.87
2018-09-11T07:15:50.318Z,1015.44
2018-09-11T07:16:50.293Z,1015.47
2018-09-11T07:17:50.269Z,1015.51
2018-09-11T07:18:50.244Z,1015.53
2018-09-11T07:19:50.397Z,1015.57
2018-09-11T07:20:50.197Z,1015.62
2018-09-11T07:21:50.172Z,1015.52
2018-09-11T07:22:50.149Z,1015.56
2018-09-11T07:23:50.128Z,1015.04
2018-09-11T07:24:50.100Z,1015.66
2018-09-11T07:25:50.277Z,1015.58
2018-09-11T07:26:52.873Z,1015.56
2018-09-11T07:27:50.029Z,1015.20
2018-09-11T07:28:50.208Z,1014.97
2018-09-11T07:29:50.182Z,1015.54
2018-09-11T07:30:49.955Z,1015.72
2018-09-11T07:31:49.931Z,1015.15
2018-09-11T07:32:50.111Z,1015.71
2018-09-11T07:35:14.393Z,1015.54
2018-09-11T07:36:14.368Z,1015.55
2018-09-11T07:37:14.344Z,1015.77
2018-09-11T07:38:14.116Z,1015.64
2018-09-11T07:39:14.091Z,1015.62
2018-09-11T07:40:14.065Z,1015.57
2018-09-11T07:41:14.042Z,1015.56
2018-09-11T07:42:14.022Z,1015.71
2018-09-11T07:43:13.999Z,1015.60
2018-09-11T07:44:13.970Z,1015.66
2018-09-11T07:45:13.949Z,1015.68
2018-09-11T07:46:13.922Z,1015.34
2018-09-11T07:47:13.899Z,1015.55
2018-09-11T07:48:13.875Z,1015.59
2018-09-11T07:49:14.054Z,1015.54
2018-09-11T07:50:13.827Z,1015.20
2018-09-11T07:51:13.804Z,1015.35
2018-09-11T07:52:13.779Z,1015.32
2018-09-11T07:53:13.970Z,1015.58
2018-09-11T07:54:13.934Z,1015.52
2018-09-11T07:55:13.910Z,1015.01
2018-09-11T07:56:13.683Z,1015.41
2018-09-11T07:57:13.660Z,1015.44
2018-09-11T07:58:13.636Z,1015.44
2018-09-11T07:59:13.614Z,1015.73
2018-09-11T08:00:13.605Z,1015.58
2018-09-11T08:01:13.563Z,1015.56
2018-09-11T08:02:13.540Z,1015.44
2018-09-11T08:03:13.608Z,1015.09
2018-09-11T08:04:13.490Z,1014.74
2018-09-11T08:05:13.548Z,1015.08
2018-09-11T08:06:13.443Z,1015.43
2018-09-11T08:07:13.419Z,1015.65
2018-09-11T08:08:13.398Z,1015.57
2018-09-11T08:09:13.375Z,1015.48
2018-09-11T08:10:13.358Z,1015.38
2018-09-11T08:11:13.324Z,1015.17
2018-09-11T08:12:13.303Z,1015.73
2018-09-11T08:13:13.280Z,1015.39
2018-09-11T08:14:13.253Z,1015.58
2018-09-11T08:15:13.436Z,1015.24
2018-09-11T08:16:13.409Z,1014.76
2018-09-11T08:17:13.388Z,1015.18
2018-09-11T08:18:13.183Z,1014.91
2018-09-11T08:19:13.145Z,1015.51
2018-09-11T08:20:13.525Z,1015.45
2018-09-11T08:21:13.290Z,1015.71
2018-09-11T08:22:13.064Z,1015.38
2018-09-11T08:23:13.041Z,1015.54
2018-09-11T08:24:13.219Z,1014.70
2018-09-11T08:25:12.993Z,1015.01
2018-09-11T08:26:12.972Z,1015.62
2018-09-11T08:27:12.946Z,1015.66
2018-09-11T08:28:12.924Z,1015.10
2018-09-11T08:29:12.930Z,1017.65
2018-09-11T08:30:12.879Z,1018.36
2018-09-11T08:31:13.056Z,1018.43
2018-09-11T08:32:13.053Z,1015.84
2018-09-11T08:33:13.011Z,1016.11
2018-09-11T08:34:12.989Z,1015.30
2018-09-11T08:35:12.972Z,1015.20
2018-09-11T08:36:12.740Z,1015.64
2018-09-11T08:37:12.719Z,1015.69
2018-09-11T08:38:12.700Z,1017.52
2018-09-11T08:39:12.877Z,1018.02
2018-09-11T08:45:07.922Z,1017.88
2018-09-11T08:46:50.104Z,1017.37
2018-09-11T08:47:50.033Z,1017.84
2018-09-11T08:48:49.808Z,1016.39
2018-09-11T08:49:49.784Z,1016.32
2018-09-11T08:50:49.965Z,1016.19
2018-09-11T08:51:49.741Z,1016.10
2018-09-11T08:52:49.753Z,1015.38
2018-09-11T08:53:49.699Z,1017.11
2018-09-11T08:54:49.686Z,1016.66
2018-09-11T08:55:49.856Z,1015.10
2018-09-11T08:56:49.633Z,1015.75
2018-09-11T08:57:49.617Z,1016.08
2018-09-11T08:58:49.592Z,1015.64
2018-09-11T08:59:49.569Z,1015.70
2018-09-11T09:00:49.549Z,1015.58
2018-09-11T09:01:49.527Z,1016.23
2018-09-11T09:02:49.506Z,1016.03
2018-09-11T09:03:49.685Z,1015.85
2018-09-11T09:04:49.462Z,1016.19
2018-09-11T09:05:49.442Z,1015.68
2018-09-11T09:06:49.421Z,1016.30
2018-09-11T09:07:49.605Z,1015.86
2018-09-11T09:08:49.385Z,1015.99
2018-09-11T09:09:49.361Z,1016.14
2018-09-11T09:10:49.338Z,1015.59
2018-09-11T09:11:49.517Z,1015.97
2018-09-11T09:12:49.296Z,1015.69
2018-09-11T09:13:49.273Z,1015.77
2018-09-11T09:14:49.255Z,1015.91
2018-09-11T09:15:49.231Z,1015.06
2018-09-11T09:16:49.224Z,1015.31
2018-09-11T09:17:49.198Z,1015.37
2018-09-11T09:18:49.171Z,1015.37
2018-09-11T09:19:49.147Z,1015.02
2018-09-11T09:20:49.184Z,1015.90
2018-09-11T09:21:49.308Z,1015.09
2018-09-11T09:22:49.286Z,1015.47
2018-09-11T09:23:49.062Z,1015.35
2018-09-11T09:24:49.041Z,1015.63
2018-09-11T09:25:49.026Z,1015.24
2018-09-11T09:26:49.000Z,1015.28
2018-09-11T09:27:48.978Z,1015.57
2018-09-11T09:28:48.959Z,1015.51
2018-09-11T09:29:48.935Z,1015.25
2018-09-11T09:30:48.919Z,1015.63
2018-09-11T09:31:48.892Z,1015.44
2018-09-11T09:32:48.871Z,1015.71
2018-09-11T09:33:48.852Z,1015.25
2018-09-11T09:34:48.833Z,1015.25
2018-09-11T09:35:48.808Z,1015.23
2018-09-11T09:36:48.851Z,1015.22
2018-09-11T09:37:48.765Z,1015.16
2018-09-11T09:38:48.744Z,1014.92
2018-09-11T09:39:48.722Z,1015.10
2018-09-11T09:40:52.131Z,1014.90
2018-09-11T09:41:48.881Z,1015.46
2018-09-11T09:42:48.661Z,1015.28
2018-09-11T09:43:48.665Z,1015.42
2018-09-11T09:44:48.624Z,1015.37
2018-09-11T09:45:48.597Z,1015.39
2018-09-11T09:46:48.571Z,1015.50
2018-09-11T09:47:48.554Z,1015.04
2018-09-11T09:48:48.533Z,1015.12
2018-09-11T09:49:48.511Z,1015.43
2018-09-11T09:50:48.530Z,1015.03
2018-09-11T09:51:48.470Z,1015.19
2018-09-11T09:52:48.443Z,1015.19
2018-09-11T09:53:48.424Z,1015.45
2018-09-11T09:54:48.403Z,1014.89
2018-09-11T09:55:48.379Z,1015.74
2018-09-11T09:56:48.358Z,1015.64
2018-09-11T09:57:48.337Z,1015.46
2018-09-11T09:58:48.319Z,1015.51
2018-09-11T09:59:48.294Z,1015.46
2018-09-11T10:00:48.297Z,1015.13
2018-09-11T10:01:48.252Z,1015.41
2018-09-11T10:02:48.232Z,1015.82
2018-09-11T10:03:48.411Z,1015.62
2018-09-11T10:04:48.421Z,1015.36
2018-09-11T10:05:48.172Z,1015.56
2018-09-11T10:06:48.348Z,1015.15
2018-09-11T10:07:48.327Z,1015.10
2018-09-11T10:08:48.118Z,1015.24
2018-09-11T10:09:48.085Z,1015.21
2018-09-11T10:10:48.065Z,1014.84
2018-09-11T10:11:48.073Z,1015.59
2018-09-11T10:12:48.023Z,1015.86
2018-09-11T10:13:48.004Z,1015.73
2018-09-11T10:14:48.187Z,1015.75
2018-09-11T10:15:47.962Z,1015.64
2018-09-11T10:16:47.943Z,1015.00
2018-09-11T10:17:47.920Z,1015.73
2018-09-11T10:18:47.907Z,1015.69
2018-09-11T10:19:47.880Z,1015.48
2018-09-11T10:20:47.865Z,1015.60
2018-09-11T10:21:47.840Z,1015.75
2018-09-11T10:22:47.819Z,1015.61
2018-09-11T10:23:47.799Z,1015.68
2018-09-11T10:24:47.779Z,1015.63
2018-09-11T10:25:47.756Z,1015.55
2018-09-11T10:26:47.738Z,1015.68
2018-09-11T10:27:47.728Z,1015.80
2018-09-11T10:28:47.702Z,1015.53
2018-09-11T10:29:47.679Z,1015.74
2018-09-11T10:30:47.655Z,1015.22
2018-09-11T10:31:47.644Z,1015.72
2018-09-11T10:32:47.615Z,1015.51
2018-09-11T10:33:47.704Z,1015.61
2018-09-11T10:34:47.574Z,1015.58
2018-09-11T10:35:47.553Z,1014.69
2018-09-11T10:36:47.531Z,1015.31
2018-09-11T10:37:47.517Z,1015.24
2018-09-11T10:38:47.491Z,1015.53
2018-09-11T10:39:47.471Z,1015.71
2018-09-11T10:40:47.452Z,1015.57
2018-09-11T10:41:47.428Z,1015.46
2018-09-11T10:42:47.408Z,1015.46
2018-09-11T10:43:47.388Z,1014.28
2018-09-11T10:44:47.379Z,1014.78
2018-09-11T10:45:47.345Z,1015.42
2018-09-11T10:46:47.325Z,1015.41
2018-09-11T10:47:47.302Z,1015.26
2018-09-11T10:48:47.349Z,1015.42
2018-09-11T10:49:47.262Z,1015.57
2018-09-11T10:50:47.242Z,1015.28
2018-09-11T10:51:47.256Z,1015.45
2018-09-11T10:52:47.203Z,1015.16
2018-09-11T10:53:47.179Z,1014.50
2018-09-11T10:54:47.158Z,1015.17
2018-09-11T10:55:47.145Z,1014.92
2018-09-11T10:56:47.120Z,1015.01
2018-09-11T10:57:47.095Z,1015.14
2018-09-11T10:58:47.073Z,1015.22
2018-09-11T10:59:47.056Z,1014.91
2018-09-11T11:00:47.032Z,1015.14
2018-09-11T11:01:47.010Z,1014.60
2018-09-11T11:02:46.989Z,1015.13
2018-09-11T11:03:47.018Z,1014.84
2018-09-11T11:04:46.980Z,1015.15
2018-09-11T11:05:46.940Z,1015.13
2018-09-11T11:06:46.906Z,1015.13
2018-09-11T11:07:46.883Z,1015.47
2018-09-11T11:08:46.864Z,1015.28
2018-09-11T11:09:46.844Z,1014.62
2018-09-11T11:10:46.819Z,1014.84
2018-09-11T11:11:46.797Z,1014.65
2018-09-11T11:12:46.781Z,1014.79
2018-09-11T11:13:46.957Z,1015.00
2018-09-11T11:14:46.735Z,1014.58
2018-09-11T11:15:46.717Z,1015.06
2018-09-11T11:16:46.692Z,1015.25
2018-09-11T11:17:46.872Z,1014.95
2018-09-11T11:18:46.654Z,1015.14
2018-09-11T11:19:46.626Z,1015.12
2018-09-11T11:20:46.603Z,1015.08
2018-09-11T11:21:46.588Z,1014.71
2018-09-11T11:22:46.565Z,1014.63
2018-09-11T11:24:28.691Z,1015.02
2018-09-11T11:25:28.672Z,1015.17
2018-09-11T11:26:28.652Z,1014.97
2018-09-11T11:27:28.629Z,1014.76
2018-09-11T11:28:28.604Z,1014.98
2018-09-11T11:29:28.581Z,1015.11
2018-09-11T11:30:28.566Z,1014.85
2018-09-11T11:31:28.539Z,1014.98
2018-09-11T11:32:28.518Z,1015.40
2018-09-11T11:33:28.501Z,1015.27
2018-09-11T11:34:28.474Z,1014.94
2018-09-11T11:35:28.458Z,1015.15
2018-09-11T11:36:28.466Z,1015.17
2018-09-11T11:37:28.705Z,1015.00
2018-09-11T11:38:28.388Z,1014.69
2018-09-11T11:39:28.368Z,1014.54
2018-09-11T11:40:28.350Z,1015.35
2018-09-11T11:41:28.327Z,1015.52
2018-09-11T11:42:28.438Z,1015.08
2018-09-11T11:43:28.286Z,1015.21
2018-09-11T11:44:28.261Z,1014.87
2018-09-11T11:45:28.241Z,1014.97
2018-09-11T11:46:28.224Z,1014.93
2018-09-11T11:47:28.198Z,1014.75
2018-09-11T11:48:28.196Z,1015.21
2018-09-11T11:49:28.154Z,1015.11
2018-09-11T11:50:28.140Z,1015.07
2018-09-11T11:51:28.120Z,1015.17
2018-09-11T11:52:28.090Z,1015.10
2018-09-11T11:53:28.068Z,1015.01
2018-09-11T11:54:28.047Z,1014.76
2018-09-11T11:55:28.090Z,1014.99
2018-09-11T11:56:28.010Z,1014.97
2018-09-11T11:57:27.983Z,1014.97
2018-09-11T11:58:27.961Z,1015.08
2018-09-11T11:59:27.944Z,1014.91
2018-09-11T12:00:27.922Z,1014.82
2018-09-11T12:01:27.961Z,1014.43
2018-09-11T12:02:27.876Z,1014.61
2018-09-11T12:03:27.862Z,1015.01
2018-09-11T12:04:27.833Z,1014.80
2018-09-11T12:05:27.812Z,1014.93
2018-09-11T12:06:27.790Z,1014.75
2018-09-11T12:07:27.771Z,1014.90
2018-09-11T12:08:27.755Z,1014.98
2018-09-11T12:09:27.925Z,1014.72
2018-09-11T12:10:27.704Z,1014.78
2018-09-11T12:11:27.685Z,1015.04
2018-09-11T12:12:27.661Z,1014.89